createdAt,value
2022-12-15T00:00:39.971Z,7.67
2022-12-15T00:02:00.109Z,7.71
2022-12-15T00:03:25.240Z,7.73
2022-12-15T00:04:45.535Z,7.73
2022-12-15T00:06:05.470Z,7.70
2022-12-15T00:07:25.298Z,7.72
2022-12-15T00:08:45.157Z,7.75
2022-12-15T00:10:05.043Z,7.73
2022-12-15T00:11:25.078Z,7.71
2022-12-15T00:12:44.918Z,7.61
2022-12-15T00:14:05.117Z,7.59
2022-12-15T00:15:25.970Z,7.59
2022-12-15T00:16:45.915Z,7.58
2022-12-15T00:18:05.624Z,7.57
2022-12-15T00:19:26.039Z,7.58
2022-12-15T00:20:46.186Z,7.56
2022-12-15T00:22:06.319Z,7.57
2022-12-15T00:23:31.045Z,7.59
2022-12-15T00:24:51.488Z,7.63
2022-12-15T00:26:11.985Z,7.67
2022-12-15T00:27:31.716Z,7.68
2022-12-15T00:28:51.561Z,7.71
2022-12-15T00:30:11.674Z,7.71
2022-12-15T00:31:31.570Z,7.70
2022-12-15T00:32:51.825Z,7.70
2022-12-15T00:34:11.798Z,7.75
2022-12-15T00:35:32.897Z,7.75
2022-12-15T00:36:52.656Z,7.77
2022-12-15T00:38:12.950Z,7.76
2022-12-15T00:39:14.603Z,7.79
2022-12-15T00:40:16.659Z,7.81
2022-12-15T00:41:18.665Z,7.79
2022-12-15T00:42:20.180Z,7.80
2022-12-15T00:43:21.654Z,7.87
2022-12-15T00:44:24.047Z,7.97
2022-12-15T00:45:45.530Z,8.01
2022-12-15T00:46:55.754Z,8.06
2022-12-15T00:47:57.338Z,8.16
2022-12-15T00:48:59.339Z,8.18
2022-12-15T00:50:19.164Z,8.08
2022-12-15T00:51:21.057Z,8.05
2022-12-15T00:52:40.935Z,8.04
2022-12-15T00:54:01.490Z,8.01
2022-12-15T00:55:22.942Z,8.07
2022-12-15T00:56:43.293Z,8.09
2022-12-15T00:58:03.540Z,8.14
2022-12-15T00:59:23.833Z,8.06
2022-12-15T01:00:44.686Z,8.09
2022-12-15T01:02:05.180Z,8.02
2022-12-15T01:03:30.964Z,8.01
2022-12-15T01:04:51.588Z,8.02
2022-12-15T01:06:11.361Z,8.09
2022-12-15T01:07:32.292Z,8.05
2022-12-15T01:08:52.188Z,8.00
2022-12-15T01:10:11.995Z,8.00
2022-12-15T01:11:31.846Z,8.01
2022-12-15T01:12:52.142Z,8.04
2022-12-15T01:14:12.510Z,8.05
2022-12-15T01:15:32.780Z,8.07
2022-12-15T01:16:53.100Z,8.09
2022-12-15T01:18:13.008Z,8.15
2022-12-15T01:19:33.424Z,8.16
2022-12-15T01:20:34.943Z,8.20
2022-12-15T01:21:36.426Z,8.19
2022-12-15T01:22:38.832Z,8.19
2022-12-15T01:23:41.268Z,8.21
2022-12-15T01:24:42.846Z,8.23
2022-12-15T01:25:44.429Z,8.24
2022-12-15T01:26:51.173Z,8.25
2022-12-15T01:27:52.843Z,8.26
2022-12-15T01:28:54.397Z,8.25
2022-12-15T01:29:55.933Z,8.25
2022-12-15T01:30:57.583Z,8.26
2022-12-15T01:31:59.257Z,8.28
2022-12-15T01:33:00.832Z,8.27
2022-12-15T01:34:02.457Z,8.29
2022-12-15T01:35:08.036Z,8.29
2022-12-15T01:36:10.571Z,8.29
2022-12-15T01:37:12.286Z,8.32
2022-12-15T01:38:13.820Z,8.37
2022-12-15T01:39:16.027Z,8.42
2022-12-15T01:40:38.818Z,8.46
2022-12-15T01:41:40.371Z,8.54
2022-12-15T01:42:42.042Z,8.54
2022-12-15T01:43:43.582Z,8.57
2022-12-15T01:44:49.664Z,8.56
2022-12-15T01:45:56.999Z,8.63
2022-12-15T01:46:58.689Z,8.68
2022-12-15T01:48:08.387Z,8.72
2022-12-15T01:49:17.457Z,8.74
2022-12-15T01:50:19.769Z,8.75
2022-12-15T01:51:33.591Z,8.81
2022-12-15T01:52:35.330Z,8.78
2022-12-15T01:53:42.072Z,8.71
2022-12-15T01:54:51.992Z,8.71
2022-12-15T01:55:54.690Z,8.79
2022-12-15T01:57:01.673Z,8.80
2022-12-15T01:58:06.916Z,8.76
2022-12-15T01:59:11.798Z,8.87
2022-12-15T02:00:14.605Z,8.94
2022-12-15T02:01:16.242Z,8.97
2022-12-15T02:02:21.496Z,8.98
2022-12-15T02:03:23.924Z,9.03
2022-12-15T02:04:25.555Z,9.07
2022-12-15T02:05:29.264Z,9.08
2022-12-15T02:06:30.861Z,9.03
2022-12-15T02:07:32.376Z,8.92
2022-12-15T02:08:34.013Z,8.90
2022-12-15T02:09:35.523Z,8.96
2022-12-15T02:11:10.538Z,8.95
2022-12-15T02:12:21.536Z,8.94
2022-12-15T02:13:39.345Z,8.98
2022-12-15T02:14:53.065Z,9.04
2022-12-15T02:16:07.118Z,9.04
2022-12-15T02:17:14.347Z,8.89
2022-12-15T02:18:41.966Z,8.89
2022-12-15T02:20:16.158Z,8.88
2022-12-15T02:21:38.673Z,8.95
2022-12-15T02:22:49.397Z,9.02
2022-12-15T02:24:15.266Z,9.10
2022-12-15T02:25:44.109Z,9.21
2022-12-15T02:27:15.608Z,9.30
2022-12-15T02:28:23.005Z,9.31
2022-12-15T02:29:30.457Z,9.31
2022-12-15T02:31:11.684Z,9.29
2022-12-15T02:32:19.358Z,9.22
2022-12-15T02:33:27.400Z,9.23
2022-12-15T02:34:40.499Z,9.21
2022-12-15T02:35:54.221Z,9.14
2022-12-15T02:37:06.985Z,9.20
2022-12-15T02:38:09.781Z,9.23
2022-12-15T02:39:14.710Z,9.25
2022-12-15T02:40:16.303Z,9.28
2022-12-15T02:41:40.835Z,9.16
2022-12-15T02:42:51.002Z,8.97
2022-12-15T02:43:52.653Z,8.85
2022-12-15T02:44:56.332Z,8.76
2022-12-15T02:46:22.830Z,8.56
2022-12-15T02:47:49.191Z,8.45
2022-12-15T02:49:02.453Z,8.30
2022-12-15T02:50:24.281Z,8.30
2022-12-15T02:51:48.540Z,8.24
2022-12-15T02:52:55.684Z,8.22
2022-12-15T02:54:05.704Z,8.14
2022-12-15T02:55:17.325Z,8.11
2022-12-15T02:56:37.084Z,8.10
2022-12-15T02:58:12.682Z,8.00
2022-12-15T02:59:23.522Z,8.00
2022-12-15T03:00:25.060Z,7.97
2022-12-15T03:01:26.600Z,7.93
2022-12-15T03:02:31.332Z,7.98
2022-12-15T03:03:36.000Z,7.99
2022-12-15T03:04:38.426Z,8.02
2022-12-15T03:05:39.936Z,8.10
2022-12-15T03:06:41.826Z,8.22
2022-12-15T03:07:43.322Z,8.21
2022-12-15T03:08:44.811Z,8.29
2022-12-15T03:09:46.348Z,8.35
2022-12-15T03:10:51.265Z,8.41
2022-12-15T03:11:52.784Z,8.34
2022-12-15T03:12:58.892Z,8.28
2022-12-15T03:14:00.477Z,8.24
2022-12-15T03:15:01.980Z,8.14
2022-12-15T03:16:03.591Z,8.08
2022-12-15T03:17:07.543Z,8.04
2022-12-15T03:18:09.101Z,8.02
2022-12-15T03:19:10.818Z,8.02
2022-12-15T03:20:13.132Z,8.04
2022-12-15T03:21:14.688Z,8.02
2022-12-15T03:22:16.436Z,8.05
2022-12-15T03:23:17.950Z,8.14
2022-12-15T03:24:19.726Z,8.23
2022-12-15T03:25:21.282Z,8.32
2022-12-15T03:26:22.842Z,8.36
2022-12-15T03:27:24.366Z,8.41
2022-12-15T03:28:25.870Z,8.41
2022-12-15T03:29:27.500Z,8.40
2022-12-15T03:30:29.097Z,8.42
2022-12-15T03:31:30.759Z,8.33
2022-12-15T03:32:32.492Z,8.24
2022-12-15T03:33:34.678Z,8.19
2022-12-15T03:34:36.609Z,8.17
2022-12-15T03:35:38.131Z,8.17
2022-12-15T03:36:39.782Z,8.09
2022-12-15T03:37:42.931Z,8.04
2022-12-15T03:38:44.654Z,8.02
2022-12-15T03:39:46.277Z,8.03
2022-12-15T03:40:47.799Z,8.06
2022-12-15T03:41:49.458Z,8.13
2022-12-15T03:42:51.126Z,8.20
2022-12-15T03:43:52.718Z,8.16
2022-12-15T03:44:54.234Z,8.09
2022-12-15T03:45:55.893Z,8.05
2022-12-15T03:47:02.958Z,8.01
2022-12-15T03:48:05.348Z,7.97
2022-12-15T03:49:07.131Z,7.96
2022-12-15T03:50:09.674Z,7.97
2022-12-15T03:51:11.330Z,7.98
2022-12-15T03:52:12.874Z,7.98
2022-12-15T03:53:14.406Z,7.88
2022-12-15T03:54:16.012Z,7.77
2022-12-15T03:55:18.234Z,7.69
2022-12-15T03:56:19.918Z,7.68
2022-12-15T03:57:21.415Z,7.72
2022-12-15T03:58:22.973Z,7.78
2022-12-15T03:59:24.501Z,7.82
2022-12-15T04:00:26.977Z,7.85
2022-12-15T04:01:36.230Z,7.94
2022-12-15T04:02:37.915Z,8.00
2022-12-15T04:03:39.669Z,8.11
2022-12-15T04:04:41.301Z,8.18
2022-12-15T04:05:42.864Z,8.24
2022-12-15T04:06:44.429Z,8.31
2022-12-15T04:07:46.134Z,8.40
2022-12-15T04:08:49.710Z,8.46
2022-12-15T04:09:51.382Z,8.51
2022-12-15T04:10:52.922Z,8.57
2022-12-15T04:11:54.781Z,8.50
2022-12-15T04:13:04.659Z,8.43
2022-12-15T04:14:06.217Z,8.34
2022-12-15T04:15:09.212Z,8.42
2022-12-15T04:16:14.800Z,8.50
2022-12-15T04:17:19.591Z,8.58
2022-12-15T04:18:21.362Z,8.61
2022-12-15T04:19:41.620Z,8.64
2022-12-15T04:20:43.210Z,8.68
2022-12-15T04:21:44.778Z,8.70
2022-12-15T04:22:48.377Z,8.75
2022-12-15T04:24:08.441Z,8.76
2022-12-15T04:25:34.833Z,8.83
2022-12-15T04:26:54.749Z,8.84
2022-12-15T04:28:14.979Z,8.87
2022-12-15T04:29:34.885Z,8.87
2022-12-15T04:30:55.763Z,8.92
2022-12-15T04:32:16.799Z,8.96
2022-12-15T04:33:38.318Z,8.96
2022-12-15T04:34:58.945Z,9.00
2022-12-15T04:36:19.487Z,9.01
2022-12-15T04:37:39.465Z,9.05
2022-12-15T04:38:59.928Z,9.08
2022-12-15T04:40:19.810Z,8.92
2022-12-15T04:41:41.614Z,8.81
2022-12-15T04:43:05.664Z,8.84
2022-12-15T04:44:26.123Z,8.91
2022-12-15T04:45:46.957Z,8.94
2022-12-15T04:47:07.187Z,8.99
2022-12-15T04:48:27.497Z,9.03
2022-12-15T04:49:47.308Z,9.08
2022-12-15T04:51:07.131Z,9.13
2022-12-15T04:52:27.202Z,9.05
2022-12-15T04:53:47.390Z,8.89
2022-12-15T04:55:07.348Z,8.87
2022-12-15T04:56:32.705Z,8.82
2022-12-15T04:57:53.735Z,8.83
2022-12-15T04:59:13.812Z,8.94
2022-12-15T05:00:34.121Z,9.02
2022-12-15T05:01:54.160Z,9.05
2022-12-15T05:03:18.358Z,9.09
2022-12-15T05:04:39.231Z,9.02
2022-12-15T05:05:59.311Z,9.05
2022-12-15T05:07:19.799Z,9.12
2022-12-15T05:08:39.921Z,9.22
2022-12-15T05:10:03.234Z,9.30
2022-12-15T05:11:24.011Z,9.36
2022-12-15T05:12:44.448Z,9.40
2022-12-15T05:14:04.592Z,9.42
2022-12-15T05:15:25.570Z,9.41
2022-12-15T05:16:45.922Z,9.29
2022-12-15T05:18:06.354Z,9.24
2022-12-15T05:19:26.390Z,9.21
2022-12-15T05:20:49.851Z,9.20
2022-12-15T05:22:10.469Z,9.15
2022-12-15T05:23:31.080Z,9.04
2022-12-15T05:24:51.103Z,8.99
2022-12-15T05:26:10.923Z,8.93
2022-12-15T05:27:30.779Z,8.90
2022-12-15T05:28:50.571Z,8.87
2022-12-15T05:30:10.463Z,8.84
2022-12-15T05:31:31.027Z,8.83
2022-12-15T05:32:33.287Z,8.84
2022-12-15T05:33:35.106Z,8.88
2022-12-15T05:34:38.276Z,8.90
2022-12-15T05:35:39.855Z,8.83
2022-12-15T05:36:41.343Z,8.78
2022-12-15T05:37:42.836Z,8.77
2022-12-15T05:38:44.392Z,8.76
2022-12-15T05:39:46.309Z,8.77
2022-12-15T05:40:47.841Z,8.71
2022-12-15T05:41:51.051Z,8.73
2022-12-15T05:42:52.589Z,8.67
2022-12-15T05:43:54.209Z,8.67
2022-12-15T05:44:55.767Z,8.63
2022-12-15T05:45:57.357Z,8.61
2022-12-15T05:46:58.969Z,8.57
2022-12-15T05:48:00.650Z,8.56
2022-12-15T05:49:11.430Z,8.57
2022-12-15T05:50:12.944Z,8.59
2022-12-15T05:51:15.155Z,8.60
2022-12-15T05:52:16.916Z,8.59
2022-12-15T05:53:18.453Z,8.61
2022-12-15T05:54:20.246Z,8.59
2022-12-15T05:55:21.742Z,8.53
2022-12-15T05:56:23.270Z,8.54
2022-12-15T05:57:24.820Z,8.54
2022-12-15T05:58:26.334Z,8.56
2022-12-15T05:59:27.889Z,8.57
2022-12-15T06:00:29.440Z,8.63
2022-12-15T06:01:32.060Z,8.62
2022-12-15T06:02:33.704Z,8.61
2022-12-15T06:03:35.973Z,8.64
2022-12-15T06:04:37.549Z,8.64
2022-12-15T06:05:39.695Z,8.58
2022-12-15T06:06:41.919Z,8.49
2022-12-15T06:07:43.500Z,8.47
2022-12-15T06:08:45.233Z,8.45
2022-12-15T06:09:47.165Z,8.46
2022-12-15T06:10:54.931Z,8.45
2022-12-15T06:11:56.439Z,8.48
2022-12-15T06:12:57.946Z,8.49
2022-12-15T06:13:59.613Z,8.50
2022-12-15T06:15:01.190Z,8.47
2022-12-15T06:16:10.014Z,8.57
2022-12-15T06:17:11.600Z,8.66
2022-12-15T06:18:13.189Z,8.70
2022-12-15T06:19:14.690Z,8.71
2022-12-15T06:20:16.293Z,8.71
2022-12-15T06:21:20.500Z,8.79
2022-12-15T06:22:22.025Z,8.89
2022-12-15T06:23:23.554Z,8.89
2022-12-15T06:24:25.961Z,8.97
2022-12-15T06:25:27.486Z,9.05
2022-12-15T06:26:39.479Z,9.12
2022-12-15T06:27:40.971Z,9.14
2022-12-15T06:28:42.481Z,9.19
2022-12-15T06:29:45.196Z,9.28
2022-12-15T06:30:46.687Z,9.31
2022-12-15T06:31:48.270Z,9.44
2022-12-15T06:32:50.058Z,9.45
2022-12-15T06:33:59.279Z,9.52
2022-12-15T06:35:03.123Z,9.56
2022-12-15T06:36:11.178Z,9.59
2022-12-15T06:37:12.982Z,9.61
2022-12-15T06:38:15.042Z,9.57
2022-12-15T06:39:17.048Z,9.55
2022-12-15T06:40:18.570Z,9.56
2022-12-15T06:41:22.227Z,9.58
2022-12-15T06:42:23.795Z,9.60
2022-12-15T06:43:26.940Z,9.65
2022-12-15T06:44:28.484Z,9.69
2022-12-15T06:45:30.063Z,9.71
2022-12-15T06:46:34.909Z,9.70
2022-12-15T06:47:36.622Z,9.53
2022-12-15T06:48:38.298Z,9.29
2022-12-15T06:49:39.834Z,9.27
2022-12-15T06:50:41.546Z,9.35
2022-12-15T06:51:44.186Z,9.42
2022-12-15T06:52:45.895Z,9.43
2022-12-15T06:53:53.101Z,9.46
2022-12-15T06:54:54.674Z,9.49
2022-12-15T06:56:01.882Z,9.54
2022-12-15T06:57:03.628Z,9.57
2022-12-15T06:58:05.131Z,9.60
2022-12-15T06:59:07.429Z,9.61
2022-12-15T07:00:09.936Z,9.62
2022-12-15T07:01:11.577Z,9.62
2022-12-15T07:02:28.466Z,9.66
2022-12-15T07:03:31.321Z,9.67
2022-12-15T07:04:33.727Z,9.69
2022-12-15T07:05:35.435Z,9.72
2022-12-15T07:06:38.806Z,9.80
2022-12-15T07:07:40.463Z,9.85
2022-12-15T07:08:43.194Z,9.85
2022-12-15T07:09:44.726Z,9.85
2022-12-15T07:10:46.301Z,9.83
2022-12-15T07:11:50.386Z,9.83
2022-12-15T07:12:51.948Z,9.79
2022-12-15T07:13:54.386Z,9.62
2022-12-15T07:14:55.911Z,9.46
2022-12-15T07:16:02.274Z,9.26
2022-12-15T07:17:03.840Z,9.13
2022-12-15T07:18:06.655Z,9.02
2022-12-15T07:19:12.636Z,8.94
2022-12-15T07:20:14.186Z,8.94
2022-12-15T07:21:15.798Z,8.96
2022-12-15T07:22:17.326Z,9.04
2022-12-15T07:23:19.467Z,9.13
2022-12-15T07:24:24.675Z,9.16
2022-12-15T07:25:26.822Z,9.18
2022-12-15T07:26:28.706Z,9.15
2022-12-15T07:27:30.340Z,9.05
2022-12-15T07:28:32.282Z,8.92
2022-12-15T07:29:34.210Z,8.82
2022-12-15T07:30:38.912Z,8.74
2022-12-15T07:31:41.280Z,8.72
2022-12-15T07:32:44.261Z,8.70
2022-12-15T07:33:52.596Z,8.65
2022-12-15T07:34:54.449Z,8.65
2022-12-15T07:35:56.097Z,8.68
2022-12-15T07:36:57.749Z,8.78
2022-12-15T07:38:00.285Z,8.83
2022-12-15T07:39:02.488Z,8.90
2022-12-15T07:40:05.461Z,9.01
2022-12-15T07:41:08.332Z,9.07
2022-12-15T07:42:09.945Z,9.05
2022-12-15T07:43:11.599Z,8.97
2022-12-15T07:44:14.770Z,8.92
2022-12-15T07:45:16.451Z,8.80
2022-12-15T07:46:18.504Z,8.77
2022-12-15T07:47:20.178Z,8.71
2022-12-15T07:48:21.973Z,8.78
2022-12-15T07:49:23.762Z,8.85
2022-12-15T07:50:25.332Z,8.85
2022-12-15T07:51:27.769Z,8.77
2022-12-15T07:52:29.707Z,8.70
2022-12-15T07:53:34.364Z,8.65
2022-12-15T07:54:36.473Z,8.64
2022-12-15T07:56:05.652Z,8.61
2022-12-15T07:57:00.191Z,8.65
2022-12-15T07:58:01.707Z,8.70
2022-12-15T07:59:03.999Z,8.69
2022-12-15T08:00:06.193Z,8.71
2022-12-15T08:01:12.298Z,8.75
2022-12-15T08:02:14.520Z,8.78
2022-12-15T08:03:16.403Z,8.83
2022-12-15T08:04:18.630Z,8.83
2022-12-15T08:05:20.455Z,8.83
2022-12-15T08:06:22.175Z,8.81
2022-12-15T08:07:23.765Z,8.82
2022-12-15T08:08:25.383Z,8.80
2022-12-15T08:09:26.993Z,8.79
2022-12-15T08:10:28.536Z,8.75
2022-12-15T08:11:34.623Z,8.97
2022-12-15T08:12:36.178Z,9.34
2022-12-15T08:15:01.641Z,9.63
2022-12-15T08:16:03.296Z,9.67
2022-12-15T08:17:05.678Z,9.57
2022-12-15T08:18:09.076Z,9.43
2022-12-15T08:19:13.321Z,9.39
2022-12-15T08:20:15.220Z,9.31
2022-12-15T08:21:17.250Z,9.23
2022-12-15T08:22:19.716Z,9.23
2022-12-15T08:23:21.266Z,9.19
2022-12-15T08:24:22.803Z,9.12
2022-12-15T08:25:25.202Z,9.05
2022-12-15T08:26:30.589Z,9.01
2022-12-15T08:27:32.909Z,8.98
2022-12-15T08:28:36.216Z,9.03
2022-12-15T08:29:53.198Z,9.13
2022-12-15T08:30:54.754Z,9.18
2022-12-15T08:31:56.443Z,9.17
2022-12-15T08:32:58.030Z,9.18
2022-12-15T08:34:01.600Z,9.16
2022-12-15T08:35:03.247Z,9.12
2022-12-15T08:36:07.401Z,9.12
2022-12-15T08:37:09.126Z,9.18
2022-12-15T08:38:10.666Z,9.24
2022-12-15T08:39:12.200Z,9.27
2022-12-15T08:40:14.044Z,9.26
2022-12-15T08:41:23.322Z,9.29
2022-12-15T08:42:24.928Z,9.25
2022-12-15T08:43:26.470Z,9.29
2022-12-15T08:44:28.007Z,9.23
2022-12-15T08:45:30.054Z,9.22
2022-12-15T08:46:34.407Z,9.21
2022-12-15T08:47:36.054Z,9.19
2022-12-15T08:48:37.624Z,9.17
2022-12-15T08:49:40.048Z,9.19
2022-12-15T08:50:45.862Z,9.29
2022-12-15T08:51:50.076Z,9.41
2022-12-15T08:53:21.260Z,9.47
2022-12-15T08:54:13.686Z,9.44
2022-12-15T08:55:20.812Z,9.45
2022-12-15T08:56:25.452Z,9.41
2022-12-15T08:57:27.408Z,9.37
2022-12-15T08:58:28.909Z,9.33
2022-12-15T08:59:30.469Z,9.32
2022-12-15T09:00:32.050Z,9.28
2022-12-15T09:01:33.844Z,9.21
2022-12-15T09:02:35.681Z,9.15
2022-12-15T09:03:37.415Z,9.11
2022-12-15T09:04:38.997Z,9.10
2022-12-15T09:05:40.625Z,9.08
2022-12-15T09:06:42.311Z,9.11
2022-12-15T09:07:43.854Z,9.16
2022-12-15T09:08:50.429Z,9.20
2022-12-15T09:09:52.399Z,9.23
2022-12-15T09:10:53.916Z,9.31
2022-12-15T09:11:55.501Z,9.36
2022-12-15T09:12:57.093Z,9.38
2022-12-15T09:13:59.230Z,9.39
2022-12-15T09:15:00.886Z,9.38
2022-12-15T09:16:13.212Z,9.40
2022-12-15T09:17:15.891Z,9.43
2022-12-15T09:18:17.468Z,9.43
2022-12-15T09:19:19.221Z,9.52
2022-12-15T09:20:20.960Z,9.61
2022-12-15T09:21:26.129Z,9.63
2022-12-15T09:22:28.168Z,9.65
2022-12-15T09:23:30.547Z,9.65
2022-12-15T09:24:35.349Z,9.67
2022-12-15T09:25:37.194Z,9.74
2022-12-15T09:26:38.836Z,9.75
2022-12-15T09:27:40.785Z,9.70
2022-12-15T09:28:43.179Z,9.69
2022-12-15T09:29:44.746Z,9.67
2022-12-15T09:30:46.458Z,9.65
2022-12-15T09:31:48.016Z,9.65
2022-12-15T09:32:49.583Z,9.69
2022-12-15T09:33:53.433Z,9.76
2022-12-15T09:34:57.181Z,9.85
2022-12-15T09:35:59.001Z,9.88
2022-12-15T09:37:00.546Z,9.91
2022-12-15T09:38:02.127Z,9.95
2022-12-15T09:39:03.769Z,9.96
2022-12-15T09:40:06.652Z,9.96
2022-12-15T09:41:15.273Z,9.95
2022-12-15T09:42:26.744Z,9.92
2022-12-15T09:43:38.048Z,9.96
2022-12-15T09:44:43.599Z,9.97
2022-12-15T09:45:52.980Z,9.95
2022-12-15T09:46:57.506Z,9.92
2022-12-15T09:48:04.907Z,9.89
2022-12-15T09:49:18.545Z,9.82
2022-12-15T09:50:27.903Z,9.84
2022-12-15T09:51:39.155Z,9.80
2022-12-15T09:52:54.839Z,9.84
2022-12-15T09:53:57.005Z,9.87
2022-12-15T09:55:01.735Z,9.89
2022-12-15T09:56:08.242Z,9.88
2022-12-15T09:57:36.073Z,9.84
2022-12-15T09:58:50.610Z,9.87
2022-12-15T09:59:55.286Z,9.88
2022-12-15T10:01:01.670Z,9.94
2022-12-15T10:02:22.037Z,9.99
2022-12-15T10:03:52.893Z,10.01
2022-12-15T10:05:15.773Z,10.02
2022-12-15T10:06:22.077Z,10.06
2022-12-15T10:07:34.760Z,10.07
2022-12-15T10:08:54.653Z,10.10
2022-12-15T10:09:57.545Z,10.12
2022-12-15T10:11:02.090Z,10.14
2022-12-15T10:12:11.220Z,10.18
2022-12-15T10:13:23.505Z,10.22
2022-12-15T10:14:37.703Z,10.33
2022-12-15T10:15:50.162Z,10.52
2022-12-15T10:17:21.551Z,10.53
2022-12-15T10:18:28.641Z,10.52
2022-12-15T10:19:52.092Z,10.53
2022-12-15T10:20:55.071Z,10.57
2022-12-15T10:21:58.273Z,10.60
2022-12-15T10:23:12.503Z,10.64
2022-12-15T10:24:44.874Z,10.72
2022-12-15T10:25:51.565Z,10.82
2022-12-15T10:27:06.012Z,10.92
2022-12-15T10:28:16.882Z,10.95
2022-12-15T10:29:43.768Z,10.99
2022-12-15T10:31:06.924Z,11.15
2022-12-15T10:32:20.822Z,11.22
2022-12-15T10:33:30.822Z,11.25
2022-12-15T10:34:38.041Z,11.17
2022-12-15T10:35:44.185Z,11.17
2022-12-15T10:36:51.370Z,11.18
2022-12-15T10:37:57.562Z,11.13
2022-12-15T10:38:59.105Z,11.15
2022-12-15T10:40:00.627Z,11.23
2022-12-15T10:41:08.472Z,11.31
2022-12-15T10:42:25.062Z,11.37
2022-12-15T10:43:36.601Z,11.48
2022-12-15T10:44:41.446Z,11.57
2022-12-15T10:45:43.445Z,11.70
2022-12-15T10:46:46.360Z,11.82
2022-12-15T10:47:59.083Z,11.93
2022-12-15T10:49:21.985Z,11.92
2022-12-15T10:50:25.543Z,11.91
2022-12-15T10:51:51.604Z,12.01
2022-12-15T10:52:53.152Z,12.03
2022-12-15T10:54:03.356Z,11.91
2022-12-15T10:55:37.320Z,11.91
2022-12-15T10:58:21.261Z,12.02
2022-12-15T10:59:34.944Z,11.98
2022-12-15T11:00:36.927Z,11.90
2022-12-15T11:01:38.677Z,11.89
2022-12-15T11:02:42.158Z,11.80
2022-12-15T11:03:44.583Z,11.75
2022-12-15T11:05:15.846Z,11.77
2022-12-15T11:06:29.565Z,11.66
2022-12-15T11:07:40.348Z,11.74
2022-12-15T11:08:43.346Z,11.78
2022-12-15T11:09:48.442Z,11.84
2022-12-15T11:11:30.940Z,11.85
2022-12-15T11:12:51.150Z,11.91
2022-12-15T11:14:07.133Z,11.88
2022-12-15T11:15:23.765Z,11.93
2022-12-15T11:16:25.272Z,11.92
2022-12-15T11:17:40.596Z,11.97
2022-12-15T11:18:53.868Z,12.04
2022-12-15T11:20:03.578Z,12.08
2022-12-15T11:21:26.528Z,12.15
2022-12-15T11:22:42.104Z,12.27
2022-12-15T11:24:25.926Z,12.31
2022-12-15T11:25:47.017Z,12.50
2022-12-15T11:26:56.502Z,12.55
2022-12-15T11:28:02.542Z,12.59
2022-12-15T11:29:21.242Z,12.64
2022-12-15T11:30:26.499Z,12.71
2022-12-15T11:31:40.284Z,12.72
2022-12-15T11:32:47.233Z,12.79
2022-12-15T11:33:55.058Z,12.84
2022-12-15T11:34:56.927Z,12.86
2022-12-15T11:36:30.603Z,12.89
2022-12-15T11:37:45.587Z,12.74
2022-12-15T11:38:52.739Z,12.69
2022-12-15T11:40:06.290Z,12.68
2022-12-15T11:41:30.816Z,12.62
2022-12-15T11:42:51.062Z,12.57
2022-12-15T11:44:13.911Z,12.60
2022-12-15T11:45:27.101Z,12.61
2022-12-15T11:46:41.231Z,12.54
2022-12-15T11:47:51.507Z,12.54
2022-12-15T11:49:21.152Z,12.52
2022-12-15T11:50:26.683Z,12.46
2022-12-15T11:51:37.453Z,12.48
2022-12-15T11:53:01.268Z,12.52
2022-12-15T11:54:19.215Z,12.51
2022-12-15T11:55:41.074Z,12.49
2022-12-15T11:56:45.445Z,12.49
2022-12-15T11:57:50.564Z,12.53
2022-12-15T11:59:13.836Z,12.61
2022-12-15T12:00:20.245Z,12.59
2022-12-15T12:01:57.025Z,12.56
2022-12-15T12:03:22.031Z,12.52
2022-12-15T12:04:37.828Z,12.53
2022-12-15T12:05:46.701Z,12.54
2022-12-15T12:06:58.552Z,12.54
2022-12-15T12:08:11.579Z,12.56
2022-12-15T12:09:31.073Z,12.62
2022-12-15T12:11:06.563Z,12.65
2022-12-15T12:12:12.063Z,12.70
2022-12-15T12:13:50.322Z,12.72
2022-12-15T12:15:13.119Z,12.81
2022-12-15T12:16:35.079Z,12.89
2022-12-15T12:17:53.110Z,12.90
2022-12-15T12:19:04.457Z,12.92
2022-12-15T12:20:17.691Z,12.91
2022-12-15T12:21:29.614Z,12.93
2022-12-15T12:22:37.763Z,12.91
2022-12-15T12:23:56.213Z,12.99
2022-12-15T12:25:12.423Z,13.02
2022-12-15T12:26:23.896Z,13.07
2022-12-15T12:27:28.550Z,13.14
2022-12-15T12:28:44.942Z,13.20
2022-12-15T12:30:04.280Z,13.28
2022-12-15T12:31:17.516Z,13.22
2022-12-15T12:32:50.509Z,13.23
2022-12-15T12:33:56.717Z,13.36
2022-12-15T12:35:30.598Z,13.41
2022-12-15T12:36:28.823Z,13.38
2022-12-15T12:37:42.174Z,13.36
2022-12-15T12:38:57.392Z,13.40
2022-12-15T12:40:05.265Z,13.45
2022-12-15T12:41:16.386Z,13.52
2022-12-15T12:42:57.681Z,13.59
2022-12-15T12:44:09.571Z,13.61
2022-12-15T12:45:13.020Z,13.69
2022-12-15T12:46:21.660Z,13.71
2022-12-15T12:47:38.531Z,13.78
2022-12-15T12:48:51.343Z,13.79
2022-12-15T12:49:59.094Z,13.72
2022-12-15T12:51:28.335Z,13.69
2022-12-15T12:52:32.918Z,13.71
2022-12-15T12:53:35.123Z,13.74
2022-12-15T12:54:36.993Z,13.80
2022-12-15T12:55:42.744Z,13.85
2022-12-15T12:56:45.592Z,13.88
2022-12-15T12:57:52.726Z,13.86
2022-12-15T12:58:54.282Z,13.87
2022-12-15T13:00:03.497Z,13.91
2022-12-15T13:01:11.114Z,13.86
2022-12-15T13:02:15.825Z,13.76
2022-12-15T13:03:21.509Z,13.74
2022-12-15T13:04:29.240Z,13.80
2022-12-15T13:05:38.290Z,13.81
2022-12-15T13:06:39.779Z,13.77
2022-12-15T13:07:41.747Z,13.74
2022-12-15T13:08:53.373Z,13.80
2022-12-15T13:10:18.447Z,13.75
2022-12-15T13:11:53.679Z,13.70
2022-12-15T13:12:59.702Z,13.68
2022-12-15T13:14:02.348Z,13.72
2022-12-15T13:15:13.065Z,13.78
2022-12-15T13:16:27.694Z,13.79
2022-12-15T13:17:41.482Z,13.79
2022-12-15T13:19:04.976Z,13.81
2022-12-15T13:20:17.835Z,13.82
2022-12-15T13:21:41.716Z,13.86
2022-12-15T13:22:43.412Z,13.84
2022-12-15T13:23:46.110Z,13.83
2022-12-15T13:24:52.196Z,13.82
2022-12-15T13:25:56.711Z,13.83
2022-12-15T13:27:26.575Z,13.84
2022-12-15T13:28:55.446Z,13.79
2022-12-15T13:29:57.087Z,13.79
2022-12-15T13:31:23.123Z,13.78
2022-12-15T13:32:40.139Z,13.76
2022-12-15T13:33:51.026Z,13.79
2022-12-15T13:34:52.878Z,13.76
2022-12-15T13:35:55.166Z,13.74
2022-12-15T13:36:57.825Z,13.66
2022-12-15T13:38:03.811Z,13.66
2022-12-15T13:39:27.813Z,13.59
2022-12-15T13:40:52.606Z,13.56
2022-12-15T13:42:31.529Z,13.56
2022-12-15T13:43:32.019Z,13.51
2022-12-15T13:44:45.461Z,13.54
2022-12-15T13:45:55.938Z,13.54
2022-12-15T13:47:07.059Z,13.60
2022-12-15T13:48:23.796Z,13.51
2022-12-15T13:49:37.166Z,13.49
2022-12-15T13:51:26.363Z,13.54
2022-12-15T13:53:08.480Z,13.49
2022-12-15T13:54:02.001Z,13.47
2022-12-15T13:55:15.400Z,13.51
2022-12-15T13:56:31.613Z,13.51
2022-12-15T13:57:44.288Z,13.51
2022-12-15T13:58:53.063Z,13.55
2022-12-15T14:00:05.242Z,13.49
2022-12-15T14:01:28.564Z,13.42
2022-12-15T14:02:36.247Z,13.44
2022-12-15T14:03:38.369Z,13.46
2022-12-15T14:04:40.262Z,13.51
2022-12-15T14:05:48.814Z,13.47
2022-12-15T14:06:56.133Z,13.43
2022-12-15T14:08:00.771Z,13.41
2022-12-15T14:09:03.380Z,13.36
2022-12-15T14:10:15.834Z,13.36
2022-12-15T14:11:51.443Z,13.32
2022-12-15T14:12:48.279Z,13.33
2022-12-15T14:13:54.382Z,13.35
2022-12-15T14:14:56.352Z,13.38
2022-12-15T14:16:03.808Z,13.45
2022-12-15T14:17:11.294Z,13.41
2022-12-15T14:18:34.956Z,13.42
2022-12-15T14:19:39.457Z,13.33
2022-12-15T14:20:41.835Z,13.34
2022-12-15T14:21:59.519Z,13.31
2022-12-15T14:23:01.162Z,13.34
2022-12-15T14:25:29.326Z,13.28
2022-12-15T14:26:30.977Z,13.30
2022-12-15T14:27:33.878Z,13.30
2022-12-15T14:28:37.627Z,13.29
2022-12-15T14:29:39.308Z,13.26
2022-12-15T14:30:41.373Z,13.19
2022-12-15T14:31:48.988Z,13.24
2022-12-15T14:33:12.227Z,13.18
2022-12-15T14:34:23.714Z,13.09
2022-12-15T14:35:33.443Z,13.04
2022-12-15T14:36:36.351Z,13.00
2022-12-15T14:37:38.081Z,13.00
2022-12-15T14:38:59.673Z,13.02
2022-12-15T14:40:01.280Z,13.07
2022-12-15T14:41:04.850Z,13.09
2022-12-15T14:42:07.881Z,13.16
2022-12-15T14:43:25.248Z,13.12
2022-12-15T14:44:39.323Z,13.13
2022-12-15T14:45:41.198Z,13.07
2022-12-15T14:46:47.758Z,13.00
2022-12-15T14:48:21.497Z,13.00
2022-12-15T14:49:31.206Z,12.86
2022-12-15T14:50:33.450Z,12.77
2022-12-15T14:51:44.248Z,12.75
2022-12-15T14:52:45.894Z,12.78
2022-12-15T14:53:51.331Z,12.76
2022-12-15T14:55:01.209Z,12.77
2022-12-15T14:57:52.459Z,12.87
2022-12-15T14:59:19.245Z,12.78
2022-12-15T15:00:49.318Z,12.77
2022-12-15T15:02:15.540Z,12.67
2022-12-15T15:03:12.082Z,11.93
2022-12-15T15:03:20.081Z,12.61
2022-12-15T15:04:26.092Z,12.55
2022-12-15T15:05:27.943Z,12.62
2022-12-15T15:06:40.748Z,12.63
2022-12-15T15:07:45.556Z,12.67
2022-12-15T15:08:53.014Z,12.65
2022-12-15T15:09:55.552Z,12.63
2022-12-15T15:11:01.502Z,12.54
2022-12-15T15:12:07.049Z,12.55
2022-12-15T15:13:20.553Z,12.56
2022-12-15T15:14:28.577Z,12.64
2022-12-15T15:15:30.176Z,12.65